AST,Max TemperatureF,Mean TemperatureF,Min TemperatureF,Max Dew PointF,MeanDew PointF,Min DewpointF,Max Humidity, Mean Humidity, Min Humidity, Max Sea Level PressureIn, Mean Sea Level PressureIn, Min Sea Level PressureIn, Max VisibilityMiles, Mean VisibilityMiles, Min VisibilityMiles, Max Wind SpeedMPH, Mean Wind SpeedMPH, Max Gust SpeedMPH,PrecipitationIn, CloudCover, Events, WindDirDegrees
2013-1-1,24,18,10,20,14,5,93,81,68,29.50,29.43,29.39,15,12,2,17,11,28,0.01,5,Snow,267
2013-1-2,12,8,3,5,1,-4,85,74,62,29.56,29.45,29.39,15,5,2,22,14,32,0.02,6,Snow,277
2013-1-3,13,10,8,7,5,3,85,77,65,29.82,29.75,29.58,15,10,3,17,13,29,0.00,8,Snow,265
2013-1-4,26,14,3,23,10,1,93,84,67,29.82,29.71,29.57,15,11,2,12,9,18,0.08,6,Snow,227
2013-1-5,24,17,10,22,14,0,93,77,47,30.13,29.78,29.57,15,10,0,21,10,32,0.00,7,Snow,290
2013-1-6,18,10,3,16,9,-2,93,83,58,30.20,30.05,29.95,15,10,1,13,7,21,0.08,5,Snow,252
2013-1-7,19,12,5,18,6,-6,93,72,41,30.34,30.10,29.94,15,10,1,15,8,22,0.02,5,Snow,303
2013-1-8,33,17,1,26,12,-6,86,74,62,30.35,30.21,30.09,15,15,15,20,10,24,0.00,5,Snow,223
2013-1-9,30,26,21,28,22,19,93,83,56,30.39,30.21,29.91,15,14,12,13,9,20,0.08,4,,211
2013-1-10,34,30,27,34,30,21,100,90,69,30.16,29.79,29.60,15,9,2,25,13,43,0.08,8,Rain-Snow,289
2013-1-11,28,26,23,23,18,16,86,74,63,30.35,30.31,30.20,15,14,8,26,18,40,0.00,8,Snow,347
2013-1-12,28,24,19,23,22,19,100,86,74,30.30,30.23,30.14,15,15,15,12,6,,0.00,7,,3
2013-1-13,36,27,18,36,30,21,100,96,81,30.14,30.08,29.99,15,7,0,9,5,,0.00,7,Fog,197
2013-1-14,45,38,32,45,39,30,100,99,70,30.02,29.89,29.78,15,6,0,15,12,22,0.00,7,Fog,215
2013-1-15,31,23,15,25,14,9,73,62,43,30.23,30.16,30.03,15,15,15,15,11,25,0.00,3,,308
2013-1-16,24,18,12,23,16,9,100,79,59,30.25,30.13,29.88,15,10,1,14,7,,0.16,5,Snow,195
2013-1-17,35,24,10,32,22,1,100,86,56,30.05,29.78,29.64,15,11,2,22,11,37,0.02,7,Snow,199
2013-1-18,9,4,-2,2,-3,-13,85,69,40,30.27,30.11,30.03,15,13,2,17,10,25,0.00,4,Snow,284
2013-1-19,25,12,-2,23,9,-11,100,75,40,30.31,30.13,29.98,15,9,1,20,9,20,0.08,6,Snow,217
2013-1-20,42,32,21,37,28,19,100,88,70,30.09,29.73,29.38,15,11,1,24,9,34,0.08,7,Rain-Snow,147
2013-1-21,28,18,8,23,0,-6,65,48,29,29.98,29.75,29.44,15,15,15,24,17,38,0.00,1,,253
2013-1-22,9,7,3,2,-3,-9,73,63,44,29.98,29.79,29.69,15,15,15,18,8,23,0.00,6,Snow,297
2013-1-23,1,0,-4,-9,-12,-16,66,54,33,29.80,29.75,29.70,15,15,15,26,12,38,0.00,1,,255
2013-1-24,0,-4,-8,-11,-15,-18,66,56,38,29.75,29.70,29.67,15,15,15,22,15,29,0.00,2,Snow,268
2013-1-25,11,3,-5,0,-7,-17,71,60,38,29.94,29.81,29.71,15,15,15,20,13,30,0.00,2,Snow,273
2013-1-26,10,6,3,0,-2,-4,78,68,49,29.97,29.89,29.82,15,15,8,13,7,,0.00,6,Snow,279
2013-1-27,15,9,3,7,3,0,79,71,58,30.12,29.95,29.82,15,14,3,16,10,24,0.00,6,Snow,293
2013-1-28,19,12,6,1,0,-2,73,56,32,30.17,30.11,30.05,15,15,15,15,11,24,0.00,1,,278
2013-1-29,23,16,10,18,9,1,86,69,52,30.25,30.11,30.03,15,14,6,10,7,,0.00,4,Snow,293
2013-1-30,44,26,12,45,27,14,100,92,78,30.27,29.95,29.53,15,14,6,30,13,39,0.08,7,Rain,173
2013-1-31,54,46,37,52,46,30,100,93,75,29.52,29.20,28.89,15,13,0,39,23,56,0.12,8,Fog-Rain-Snow,191